F/v.oceane — FHDQ — position and weather

sailwx.info

Track history (hours):
 
Tides and Currents Weather Stations Pressure Air Temp Water Temp Dewpoint Dewpoint Depression Visibility Wind Speed Wind Dir Waves Ship Positions

F/v.oceane

Last reported at 2018-Feb-06 17:25 UTC. Time now 2018-Feb-24 19:58 UTC.
Position N 49°12' W 002°47'.
Warning: this ship's position is 18 days out of date.

Length 18 m; draft 3.2 m.

Type: Fishing. MMSI: 228827000.

Date/timePositionNaut miles runAvg speedWind from/ knotsBaromVisibWave heightAir tempDewpointWater temp
2018-Feb-06 17:25N 49°12' W 002°47'3 1.4
2018-Feb-06 15:00N 49°11' W 002°42'4 6.4
2018-Feb-06 14:24N 49°15' W 002°44'3 6.3
2018-Feb-06 13:58N 49°13' W 002°41'  
2018-Jan-31 00:46N 48°41' W 004°33'7 9.7
2018-Jan-31 00:00N 48°38' W 004°43'5 9.3
2018-Jan-30 23:30N 48°34' W 004°48'5 9.5
2018-Jan-30 23:00N 48°30' W 004°50'4 8.3
2018-Jan-30 22:30N 48°25' W 004°50'9 8.7
2018-Jan-30 21:31N 48°17' W 004°46'4 7.5
2018-Jan-30 21:00N 48°14' W 004°45'3 6.9
2018-Jan-30 20:31N 48°11' W 004°42'4 7.4
2018-Jan-30 20:01N 48°08' W 004°38'4 7.6
2018-Jan-30 19:30N 48°08' W 004°32'4 8.1
2018-Jan-30 19:00N 48°07' W 004°26'4 8.8
2018-Jan-30 18:30N 48°06' W 004°20'0 0.8
2018-Jan-30 18:00N 48°06' W 004°20'0 0.0
2018-Jan-30 17:30N 48°06' W 004°20'0 0.0
2018-Jan-30 17:00N 48°06' W 004°20'0 0.0
2018-Jan-30 16:30N 48°06' W 004°20'0 0.0
2018-Jan-30 16:00N 48°06' W 004°20'0 0.0
2018-Jan-30 15:30N 48°06' W 004°20'0 0.0
2018-Jan-30 15:00N 48°06' W 004°20'  
Track history (hours):
 
Tides and Currents Weather Stations Pressure Air Temp Water Temp Dewpoint Dewpoint Depression Visibility Wind Speed Wind Dir Waves Ship Positions

F/v.oceane

Last reported at 2018-Feb-06 17:25 UTC. Time now 2018-Feb-24 19:58 UTC.
Position N 49°12' W 002°47'.
Warning: this ship's position is 18 days out of date.

Length 18 m; draft 3.2 m.

Type: Fishing. MMSI: 228827000.

Date/timePositionNaut miles runAvg speedWind from/ knotsBaromVisibWave heightAir tempDewpointWater temp
2018-Feb-06 17:25N 49°12' W 002°47'3 1.4
2018-Feb-06 15:00N 49°11' W 002°42'4 6.4
2018-Feb-06 14:24N 49°15' W 002°44'3 6.3
2018-Feb-06 13:58N 49°13' W 002°41'  
2018-Jan-31 00:46N 48°41' W 004°33'7 9.7
2018-Jan-31 00:00N 48°38' W 004°43'5 9.3
2018-Jan-30 23:30N 48°34' W 004°48'5 9.5
2018-Jan-30 23:00N 48°30' W 004°50'4 8.3
2018-Jan-30 22:30N 48°25' W 004°50'9 8.7
2018-Jan-30 21:31N 48°17' W 004°46'4 7.5
2018-Jan-30 21:00N 48°14' W 004°45'3 6.9
2018-Jan-30 20:31N 48°11' W 004°42'4 7.4
2018-Jan-30 20:01N 48°08' W 004°38'4 7.6
2018-Jan-30 19:30N 48°08' W 004°32'4 8.1
2018-Jan-30 19:00N 48°07' W 004°26'4 8.8
2018-Jan-30 18:30N 48°06' W 004°20'0 0.8
2018-Jan-30 18:00N 48°06' W 004°20'0 0.0
2018-Jan-30 17:30N 48°06' W 004°20'0 0.0
2018-Jan-30 17:00N 48°06' W 004°20'0 0.0
2018-Jan-30 16:30N 48°06' W 004°20'0 0.0
2018-Jan-30 16:00N 48°06' W 004°20'0 0.0
2018-Jan-30 15:30N 48°06' W 004°20'0 0.0
2018-Jan-30 15:00N 48°06' W 004°20'  

Dump ship's entire track history